createdAt,value
2022-10-03T00:01:45.024Z,10.18
2022-10-03T00:04:36.394Z,9.40
2022-10-03T00:07:41.562Z,10.63
2022-10-03T00:10:41.785Z,10.88
2022-10-03T00:13:50.375Z,9.83
2022-10-03T00:16:38.041Z,10.73
2022-10-03T00:19:45.744Z,10.30
2022-10-03T00:22:18.482Z,10.55
2022-10-03T00:25:03.770Z,12.15
2022-10-03T00:27:45.933Z,11.95
2022-10-03T00:30:21.973Z,10.95
2022-10-03T00:32:51.630Z,12.63
2022-10-03T00:35:31.111Z,13.68
2022-10-03T00:38:42.579Z,12.55
2022-10-03T00:41:43.403Z,12.63
2022-10-03T00:44:38.236Z,12.77
2022-10-03T00:47:22.078Z,12.35
2022-10-03T00:50:14.426Z,12.70
2022-10-03T00:52:43.962Z,12.82
2022-10-03T00:55:38.543Z,12.50
2022-10-03T00:58:16.997Z,12.52
2022-10-03T01:00:51.412Z,12.45
2022-10-03T01:03:23.961Z,12.20
2022-10-03T01:06:15.780Z,14.73
2022-10-03T01:08:52.258Z,12.38
2022-10-03T01:11:25.058Z,12.15
2022-10-03T01:14:00.785Z,12.40
2022-10-03T01:16:37.870Z,13.00
2022-10-03T01:19:38.404Z,13.27
2022-10-03T01:22:36.397Z,13.80
2022-10-03T01:25:30.901Z,14.88
2022-10-03T01:28:34.684Z,14.70
2022-10-03T01:31:06.159Z,13.35
2022-10-03T01:34:11.218Z,12.90
2022-10-03T01:36:52.640Z,13.65
2022-10-03T01:39:42.274Z,14.02
2022-10-03T01:42:18.018Z,15.00
2022-10-03T01:45:03.019Z,14.50
2022-10-03T01:48:08.372Z,15.40
2022-10-03T01:50:52.206Z,15.45
2022-10-03T01:53:41.073Z,17.45
2022-10-03T01:56:48.343Z,15.48
2022-10-03T01:59:31.669Z,16.30
2022-10-03T02:02:17.968Z,15.88
2022-10-03T02:05:04.216Z,15.15
2022-10-03T02:07:55.055Z,15.15
2022-10-03T02:10:50.746Z,15.30
2022-10-03T02:13:22.524Z,14.23
2022-10-03T02:16:04.744Z,16.75
2022-10-03T02:18:58.649Z,15.50
2022-10-03T02:21:33.478Z,16.27
2022-10-03T02:24:37.570Z,14.90
2022-10-03T02:27:52.691Z,13.85
2022-10-03T02:30:58.752Z,14.93
2022-10-03T02:33:56.203Z,13.18
2022-10-03T02:36:38.029Z,13.98
2022-10-03T02:39:42.816Z,13.90
2022-10-03T02:42:37.321Z,12.40
2022-10-03T02:45:23.082Z,12.60
2022-10-03T02:48:30.637Z,12.55
2022-10-03T02:51:17.466Z,13.77
2022-10-03T02:53:52.933Z,13.13
2022-10-03T02:56:28.710Z,13.38
2022-10-03T02:59:02.895Z,13.95
2022-10-03T03:01:35.419Z,14.05
2022-10-03T03:04:38.603Z,14.07
2022-10-03T03:07:23.469Z,13.52
2022-10-03T03:10:26.692Z,13.98
2022-10-03T03:13:27.227Z,14.30
2022-10-03T03:16:33.527Z,15.43
2022-10-03T03:19:18.820Z,15.85
2022-10-03T03:22:11.104Z,16.20
2022-10-03T03:24:56.287Z,17.00
2022-10-03T03:27:35.164Z,15.15
2022-10-03T03:30:12.969Z,14.90
2022-10-03T03:33:01.339Z,16.42
2022-10-03T03:35:52.898Z,15.30
2022-10-03T03:38:31.878Z,16.58
2022-10-03T03:41:04.810Z,14.80
2022-10-03T03:43:47.489Z,14.50
2022-10-03T03:46:26.543Z,15.40
2022-10-03T03:49:21.115Z,14.52
2022-10-03T03:51:50.838Z,14.63
2022-10-03T03:54:45.116Z,15.95
2022-10-03T03:57:33.089Z,14.80
2022-10-03T04:00:22.157Z,15.98
2022-10-03T04:03:18.853Z,15.65
2022-10-03T04:05:51.633Z,14.23
2022-10-03T04:08:34.833Z,15.68
2022-10-03T04:11:27.184Z,14.20
2022-10-03T04:14:02.556Z,14.27
2022-10-03T04:17:01.474Z,13.73
2022-10-03T04:19:58.210Z,14.88
2022-10-03T04:22:30.782Z,12.63
2022-10-03T04:25:16.094Z,15.07
2022-10-03T04:27:43.063Z,12.85
2022-10-03T04:30:10.059Z,14.43
2022-10-03T04:33:24.226Z,15.15
2022-10-03T04:36:09.806Z,14.00
2022-10-03T04:39:16.809Z,14.85
2022-10-03T04:42:04.074Z,14.00
2022-10-03T04:44:59.826Z,14.50
2022-10-03T04:48:12.926Z,15.10
2022-10-03T04:51:19.977Z,14.52
2022-10-03T04:53:49.428Z,14.68
2022-10-03T04:56:40.994Z,16.38
2022-10-03T04:59:34.334Z,14.38
2022-10-03T05:02:09.259Z,15.63
2022-10-03T05:04:55.737Z,14.98
2022-10-03T05:07:25.683Z,14.45
2022-10-03T05:10:21.755Z,15.25
2022-10-03T05:13:00.339Z,14.55
2022-10-03T05:15:33.787Z,13.50
2022-10-03T05:18:14.100Z,13.32
2022-10-03T05:21:05.635Z,13.68
2022-10-03T05:23:48.362Z,15.63
2022-10-03T05:26:44.454Z,12.57
2022-10-03T05:29:11.528Z,14.90
2022-10-03T05:31:48.349Z,13.82
2022-10-03T05:34:49.153Z,13.25
2022-10-03T05:37:21.819Z,15.68
2022-10-03T05:40:00.794Z,14.27
2022-10-03T05:42:45.595Z,13.70
2022-10-03T05:45:35.831Z,14.57
2022-10-03T05:48:14.762Z,13.57
2022-10-03T05:51:12.409Z,13.30
2022-10-03T05:53:57.845Z,13.23
2022-10-03T05:57:02.421Z,13.02
2022-10-03T05:59:35.768Z,15.00
2022-10-03T06:02:41.264Z,12.98
2022-10-03T06:05:32.272Z,13.35
2022-10-03T06:08:32.587Z,12.63
2022-10-03T06:11:17.478Z,12.95
2022-10-03T06:14:07.550Z,12.63
2022-10-03T06:16:41.149Z,17.17
2022-10-03T06:19:40.052Z,13.93
2022-10-03T06:22:44.662Z,14.52
2022-10-03T06:25:23.392Z,13.43
2022-10-03T06:28:24.075Z,13.90
2022-10-03T06:31:11.269Z,13.18
2022-10-03T06:34:02.900Z,14.93
2022-10-03T06:36:51.856Z,12.77
2022-10-03T06:39:27.660Z,12.70
2022-10-03T06:42:16.457Z,13.32
2022-10-03T06:44:57.711Z,13.57
2022-10-03T06:48:01.973Z,14.02
2022-10-03T06:50:43.755Z,12.82
2022-10-03T06:53:16.846Z,13.80
2022-10-03T06:56:24.719Z,13.88
2022-10-03T06:59:28.284Z,18.60
2022-10-03T07:02:15.861Z,14.18
2022-10-03T07:05:00.286Z,14.68
2022-10-03T07:08:24.044Z,14.20
2022-10-03T07:11:06.807Z,13.93
2022-10-03T07:13:54.546Z,14.35
2022-10-03T07:16:50.316Z,14.10
2022-10-03T07:19:31.804Z,12.75
2022-10-03T07:22:10.496Z,14.20
2022-10-03T07:25:08.722Z,13.10
2022-10-03T07:28:14.083Z,12.80
2022-10-03T07:30:59.521Z,15.57
2022-10-03T07:33:47.727Z,12.52
2022-10-03T07:36:51.365Z,13.02
2022-10-03T07:39:33.110Z,14.25
2022-10-03T07:42:21.253Z,12.45
2022-10-03T07:45:06.861Z,12.88
2022-10-03T07:47:57.803Z,13.73
2022-10-03T07:50:36.792Z,12.43
2022-10-03T07:53:27.520Z,13.63
2022-10-03T07:56:07.256Z,12.88
2022-10-03T07:59:15.471Z,13.15
2022-10-03T08:01:48.297Z,13.15
2022-10-03T08:04:37.230Z,13.63
2022-10-03T08:07:10.962Z,14.60
2022-10-03T08:09:57.448Z,14.20
2022-10-03T08:12:56.459Z,13.57
2022-10-03T08:15:50.537Z,14.60
2022-10-03T08:18:50.295Z,14.80
2022-10-03T08:21:17.027Z,14.57
2022-10-03T08:24:27.193Z,14.65
2022-10-03T08:27:03.129Z,15.32
2022-10-03T08:29:51.920Z,13.48
2022-10-03T08:32:36.076Z,13.63
2022-10-03T08:35:20.793Z,15.18
2022-10-03T08:37:56.630Z,14.02
2022-10-03T08:40:41.961Z,14.73
2022-10-03T08:43:50.411Z,13.45
2022-10-03T08:46:44.862Z,12.15
2022-10-03T08:49:51.800Z,12.00
2022-10-03T08:52:30.864Z,13.00
2022-10-03T08:55:56.384Z,13.68
2022-10-03T08:58:25.928Z,11.00
2022-10-03T09:01:16.717Z,11.60
2022-10-03T09:04:01.177Z,10.07
2022-10-03T09:07:15.428Z,10.52
2022-10-03T09:09:55.143Z,9.90
2022-10-03T09:12:48.138Z,9.02
2022-10-03T09:15:48.031Z,10.18
2022-10-03T09:18:23.904Z,10.00
2022-10-03T09:20:50.571Z,9.85
2022-10-03T09:23:42.546Z,8.82
2022-10-03T09:26:15.176Z,8.85
2022-10-03T09:29:17.300Z,8.63
2022-10-03T09:32:17.944Z,7.50
2022-10-03T09:35:13.815Z,7.45
2022-10-03T09:38:02.222Z,7.50
2022-10-03T09:40:37.942Z,8.18
2022-10-03T09:43:37.367Z,8.25
2022-10-03T09:46:32.165Z,8.05
2022-10-03T09:49:24.030Z,8.90
2022-10-03T09:51:59.727Z,6.88
2022-10-03T09:54:48.502Z,6.93
2022-10-03T09:58:10.199Z,7.40
2022-10-03T10:01:02.942Z,6.93
2022-10-03T10:04:06.775Z,6.47
2022-10-03T10:06:55.742Z,6.88
2022-10-03T10:09:37.548Z,6.97
2022-10-03T10:12:10.131Z,6.65
2022-10-03T10:14:55.064Z,6.85
2022-10-03T10:17:45.125Z,7.75
2022-10-03T10:20:30.521Z,6.72
2022-10-03T10:22:59.950Z,6.95
2022-10-03T10:26:04.599Z,7.03
2022-10-03T10:29:11.554Z,6.70
2022-10-03T10:32:09.776Z,6.32
2022-10-03T10:35:17.695Z,6.10
2022-10-03T10:37:47.257Z,6.00
2022-10-03T10:40:36.171Z,6.70
2022-10-03T10:43:39.607Z,6.10
2022-10-03T10:46:25.402Z,6.18
2022-10-03T10:48:54.911Z,6.50
2022-10-03T10:51:41.780Z,6.65
2022-10-03T10:54:14.218Z,7.47
2022-10-03T10:57:09.530Z,6.22
2022-10-03T10:59:54.143Z,6.90
2022-10-03T11:03:03.096Z,6.13
2022-10-03T11:06:08.557Z,6.65
2022-10-03T11:09:12.621Z,6.63
2022-10-03T11:12:27.349Z,6.20
2022-10-03T11:15:27.903Z,6.57
2022-10-03T11:18:19.564Z,6.57
2022-10-03T11:20:49.321Z,6.95
2022-10-03T11:23:24.599Z,6.22
2022-10-03T11:26:33.299Z,6.28
2022-10-03T11:29:31.387Z,6.35
2022-10-03T11:32:31.342Z,7.20
2022-10-03T11:35:29.522Z,6.47
2022-10-03T11:37:59.017Z,6.55
2022-10-03T11:41:02.030Z,6.03
2022-10-03T11:44:20.075Z,6.18
2022-10-03T11:46:58.772Z,5.60
2022-10-03T11:50:09.916Z,6.35
2022-10-03T11:52:42.552Z,6.53
2022-10-03T11:55:33.217Z,6.15
2022-10-03T11:58:34.773Z,6.68
2022-10-03T12:01:20.312Z,6.78
2022-10-03T12:03:57.962Z,5.90
2022-10-03T12:07:05.562Z,6.20
2022-10-03T12:10:07.429Z,6.35
2022-10-03T12:12:55.722Z,6.10
2022-10-03T12:15:48.105Z,5.50
2022-10-03T12:18:39.707Z,6.22
2022-10-03T12:21:43.554Z,6.40
2022-10-03T12:24:37.494Z,5.95
2022-10-03T12:27:07.047Z,6.60
2022-10-03T12:29:39.029Z,6.30
2022-10-03T12:32:34.722Z,6.30
2022-10-03T12:35:30.002Z,6.40
2022-10-03T12:38:28.993Z,6.05
2022-10-03T12:41:19.362Z,5.63
2022-10-03T12:44:14.023Z,6.03
2022-10-03T12:47:01.001Z,7.95
2022-10-03T12:50:00.663Z,5.93
2022-10-03T12:52:39.805Z,5.93
2022-10-03T12:55:12.419Z,6.40
2022-10-03T12:57:58.158Z,6.20
2022-10-03T13:00:55.854Z,6.25
2022-10-03T13:03:48.683Z,7.05
2022-10-03T13:06:58.269Z,6.40
2022-10-03T13:09:45.825Z,5.80
2022-10-03T13:12:24.221Z,6.57
2022-10-03T13:15:31.913Z,5.47
2022-10-03T13:18:12.625Z,5.20
2022-10-03T13:20:43.839Z,5.40
2022-10-03T13:23:33.457Z,5.60
2022-10-03T13:26:18.313Z,5.68
2022-10-03T13:29:13.999Z,6.30
2022-10-03T13:32:06.972Z,6.38
2022-10-03T13:35:24.578Z,5.95
2022-10-03T13:38:12.266Z,6.68
2022-10-03T13:41:03.317Z,6.00
2022-10-03T13:43:38.622Z,6.30
2022-10-03T13:46:16.743Z,6.07
2022-10-03T13:48:52.826Z,5.93
2022-10-03T13:51:22.426Z,6.18
2022-10-03T13:54:06.913Z,7.20
2022-10-03T13:56:45.561Z,6.50
2022-10-03T13:59:17.945Z,5.60
2022-10-03T14:01:56.895Z,6.40
2022-10-03T14:04:35.673Z,6.00
2022-10-03T14:07:14.397Z,5.95
2022-10-03T14:10:07.209Z,5.90
2022-10-03T14:12:55.729Z,6.72
2022-10-03T14:15:29.600Z,5.80
2022-10-03T14:18:08.451Z,6.00
2022-10-03T14:20:53.491Z,6.20
2022-10-03T14:23:42.246Z,6.05
2022-10-03T14:26:24.967Z,5.65
2022-10-03T14:28:51.628Z,5.97
2022-10-03T14:31:35.441Z,5.13
2022-10-03T14:34:14.504Z,5.40
2022-10-03T14:37:04.833Z,5.50
2022-10-03T14:40:16.589Z,6.10
2022-10-03T14:43:04.895Z,6.45
2022-10-03T14:45:39.313Z,5.90
2022-10-03T14:48:23.637Z,6.03
2022-10-03T14:50:55.687Z,6.93
2022-10-03T14:53:29.749Z,6.15
2022-10-03T14:56:05.177Z,6.68
2022-10-03T14:58:48.733Z,6.32
2022-10-03T15:01:20.664Z,6.05
2022-10-03T15:04:06.850Z,5.65
2022-10-03T15:06:45.719Z,5.82
2022-10-03T15:09:20.458Z,8.27
2022-10-03T15:12:12.813Z,12.07
2022-10-03T15:14:45.639Z,5.55
2022-10-03T15:17:31.417Z,6.68
2022-10-03T15:20:01.021Z,6.20
2022-10-03T15:22:37.838Z,7.75
2022-10-03T15:25:10.951Z,10.98
2022-10-03T15:27:41.845Z,16.10
2022-10-03T15:30:37.209Z,7.93
2022-10-03T15:33:29.798Z,8.20
2022-10-03T15:36:03.682Z,6.50
2022-10-03T15:38:38.154Z,7.30
2022-10-03T15:41:22.013Z,6.13
2022-10-03T15:44:17.014Z,6.32
2022-10-03T15:46:48.549Z,6.88
2022-10-03T15:49:31.686Z,7.47
2022-10-03T15:52:21.317Z,7.43
2022-10-03T15:54:56.940Z,7.82
2022-10-03T15:57:38.291Z,7.70
2022-10-03T16:00:07.410Z,6.97
2022-10-03T16:02:52.791Z,6.60
2022-10-03T16:05:25.683Z,6.53
2022-10-03T16:08:14.229Z,6.80
2022-10-03T16:10:53.285Z,6.63
2022-10-03T16:13:28.887Z,6.97
2022-10-03T16:16:08.872Z,6.40
2022-10-03T16:19:20.409Z,6.95
2022-10-03T16:21:53.350Z,7.05
2022-10-03T16:24:45.199Z,6.80
2022-10-03T16:27:20.792Z,6.43
2022-10-03T16:30:16.033Z,6.55
2022-10-03T16:33:14.946Z,6.55
2022-10-03T16:35:48.492Z,6.40
2022-10-03T16:38:23.445Z,6.75
2022-10-03T16:40:55.338Z,6.20
2022-10-03T16:43:24.567Z,6.15
2022-10-03T16:45:52.129Z,6.50
2022-10-03T16:48:45.902Z,6.20
2022-10-03T16:51:23.446Z,6.10
2022-10-03T16:53:53.581Z,6.68
2022-10-03T16:56:28.235Z,6.50
2022-10-03T16:58:58.685Z,5.70
2022-10-03T17:01:57.666Z,6.20
2022-10-03T17:04:33.247Z,6.63
2022-10-03T17:07:03.992Z,6.70
2022-10-03T17:12:01.924Z,8.00
2022-10-03T17:14:37.037Z,9.13
2022-10-03T17:17:21.511Z,10.15
2022-10-03T17:20:15.625Z,8.10
2022-10-03T17:22:46.772Z,6.97
2022-10-03T17:25:44.681Z,6.93
2022-10-03T17:28:23.971Z,6.80
2022-10-03T17:30:54.453Z,7.63
2022-10-03T17:33:55.688Z,6.90
2022-10-03T17:36:44.603Z,7.15
2022-10-03T17:39:35.964Z,7.32
2022-10-03T17:42:27.588Z,6.97
2022-10-03T17:45:12.308Z,6.38
2022-10-03T17:47:54.543Z,8.35
2022-10-03T17:50:39.963Z,9.15
2022-10-03T17:53:23.758Z,9.30
2022-10-03T17:55:57.017Z,9.93
2022-10-03T17:58:29.516Z,13.85
2022-10-03T18:01:12.851Z,14.98
2022-10-03T18:04:04.682Z,13.70
2022-10-03T18:06:38.325Z,11.13
2022-10-03T18:09:15.130Z,10.50
2022-10-03T18:11:43.663Z,11.20
2022-10-03T18:14:27.484Z,9.45
2022-10-03T18:16:58.658Z,8.50
2022-10-03T18:19:40.557Z,7.50
2022-10-03T18:22:30.340Z,7.32
2022-10-03T18:25:54.118Z,9.60
2022-10-03T18:28:49.058Z,9.35
2022-10-03T18:31:19.288Z,9.85
2022-10-03T18:33:51.013Z,9.73
2022-10-03T18:36:24.439Z,9.27
2022-10-03T18:39:06.436Z,10.10
2022-10-03T18:41:33.879Z,9.85
2022-10-03T18:44:01.597Z,9.20
2022-10-03T18:46:38.588Z,8.82
2022-10-03T18:49:34.869Z,8.77
2022-10-03T18:52:14.360Z,9.95
2022-10-03T18:55:08.361Z,9.43
2022-10-03T18:57:53.546Z,8.80
2022-10-03T19:00:25.828Z,8.65
2022-10-03T19:03:06.011Z,11.27
2022-10-03T19:05:35.394Z,12.45
2022-10-03T19:08:27.362Z,10.55
2022-10-03T19:11:24.274Z,9.25
2022-10-03T19:14:03.112Z,9.52
2022-10-03T19:17:07.612Z,10.10
2022-10-03T19:20:02.931Z,9.10
2022-10-03T19:25:32.015Z,9.75
2022-10-03T19:31:30.851Z,8.15
2022-10-03T19:34:12.752Z,9.85
2022-10-03T19:36:50.170Z,9.50
2022-10-03T19:39:23.278Z,8.95
2022-10-03T19:42:39.665Z,8.43
2022-10-03T19:45:21.142Z,23.90
2022-10-03T19:47:55.275Z,22.75
2022-10-03T19:50:36.433Z,26.77
2022-10-03T19:53:21.770Z,27.15
2022-10-03T19:55:55.484Z,24.48
2022-10-03T19:58:28.489Z,18.83
2022-10-03T20:01:02.847Z,15.73
2022-10-03T20:03:40.687Z,13.27
2022-10-03T20:06:42.256Z,12.88
2022-10-03T20:09:34.959Z,9.27
2022-10-03T20:12:06.445Z,10.00
2022-10-03T20:14:36.423Z,9.15
2022-10-03T20:17:25.608Z,8.73
2022-10-03T20:20:11.225Z,8.90
2022-10-03T20:22:44.182Z,8.27
2022-10-03T20:26:05.415Z,7.75
2022-10-03T20:31:28.161Z,8.50
2022-10-03T20:34:06.457Z,8.52
2022-10-03T20:36:42.126Z,7.85
2022-10-03T20:39:39.439Z,8.23
2022-10-03T20:42:34.501Z,8.68
2022-10-03T20:45:24.612Z,8.38
2022-10-03T20:48:00.881Z,8.57
2022-10-03T20:50:50.728Z,8.32
2022-10-03T20:53:33.174Z,8.05
2022-10-03T20:56:15.124Z,9.88
2022-10-03T20:58:51.515Z,8.15
2022-10-03T21:01:24.367Z,8.15
2022-10-03T21:04:10.950Z,8.73
2022-10-03T21:07:01.339Z,8.38
2022-10-03T21:09:52.391Z,8.02
2022-10-03T21:14:57.999Z,13.30
2022-10-03T21:17:31.733Z,9.52
2022-10-03T21:20:27.879Z,9.05
2022-10-03T21:23:03.289Z,8.15
2022-10-03T21:25:35.565Z,8.57
2022-10-03T21:28:07.135Z,8.20
2022-10-03T21:31:11.142Z,7.75
2022-10-03T21:34:06.846Z,7.90
2022-10-03T21:40:03.016Z,7.50
2022-10-03T21:42:48.441Z,8.00
2022-10-03T21:45:54.281Z,7.82
2022-10-03T21:48:51.956Z,7.85
2022-10-03T21:51:49.727Z,8.32
2022-10-03T21:55:05.309Z,7.97
2022-10-03T21:58:17.161Z,9.52
2022-10-03T22:01:13.510Z,7.93
2022-10-03T22:04:01.398Z,8.10
2022-10-03T22:06:39.533Z,8.20
2022-10-03T22:09:16.119Z,8.35
2022-10-03T22:11:57.684Z,8.00
2022-10-03T22:14:43.289Z,7.85
2022-10-03T22:17:25.813Z,7.40
2022-10-03T22:20:16.839Z,7.50
2022-10-03T22:22:53.366Z,7.75
2022-10-03T22:25:31.789Z,8.50
2022-10-03T22:28:35.982Z,8.18
2022-10-03T22:31:03.668Z,7.97
2022-10-03T22:33:46.483Z,8.05
2022-10-03T22:39:17.008Z,8.45
2022-10-03T22:41:46.891Z,8.00
2022-10-03T22:44:16.077Z,8.30
2022-10-03T22:46:47.043Z,7.68
2022-10-03T22:49:21.375Z,7.88
2022-10-03T22:51:51.143Z,8.90
2022-10-03T22:54:18.882Z,8.10
2022-10-03T22:56:54.115Z,7.45
2022-10-03T22:59:28.727Z,7.47
2022-10-03T23:01:59.470Z,8.15
2022-10-03T23:04:36.356Z,7.97
2022-10-03T23:07:02.987Z,7.95
2022-10-03T23:09:50.329Z,8.15
2022-10-03T23:12:18.835Z,7.50
2022-10-03T23:14:49.825Z,8.90
2022-10-03T23:17:38.729Z,7.88
2022-10-03T23:20:20.718Z,8.05
2022-10-03T23:22:53.535Z,7.90
2022-10-03T23:25:29.239Z,8.13
2022-10-03T23:28:09.377Z,8.65
2022-10-03T23:30:36.051Z,7.90
2022-10-03T23:33:02.818Z,7.47
2022-10-03T23:35:38.904Z,7.57
2022-10-03T23:38:31.448Z,8.02
2022-10-03T23:41:02.800Z,8.50
2022-10-03T23:43:46.208Z,8.50
2022-10-03T23:46:19.597Z,8.30
2022-10-03T23:49:02.416Z,8.88
2022-10-03T23:51:34.920Z,7.47
2022-10-03T23:54:08.345Z,8.52
2022-10-03T23:56:41.154Z,7.75
2022-10-03T23:59:14.073Z,8.23
